sensor_id;sensor_type;location;lat;lon;timestamp;pressure;altitude;pressure_sealevel;temperature;humidity
55022;BME280;68328;35.990;-86.756;2023-03-03T00:00:58;98200.22;;;29.14;24.08
55022;BME280;68328;35.990;-86.756;2023-03-03T00:03:24;98198.49;;;29.10;24.16
55022;BME280;68328;35.990;-86.756;2023-03-03T00:05:48;98202.87;;;29.16;24.11
55022;BME280;68328;35.990;-86.756;2023-03-03T00:08:14;98204.46;;;29.09;24.22
55022;BME280;68328;35.990;-86.756;2023-03-03T00:10:39;98197.13;;;29.35;24.19
55022;BME280;68328;35.990;-86.756;2023-03-03T00:13:10;98197.44;;;28.87;24.24
55022;BME280;68328;35.990;-86.756;2023-03-03T00:15:30;98205.60;;;28.59;24.27
55022;BME280;68328;35.990;-86.756;2023-03-03T00:17:55;98194.26;;;29.06;24.27
55022;BME280;68328;35.990;-86.756;2023-03-03T00:20:29;98191.01;;;29.03;24.29
55022;BME280;68328;35.990;-86.756;2023-03-03T00:22:45;98209.20;;;29.03;24.32
55022;BME280;68328;35.990;-86.756;2023-03-03T00:27:36;98215.32;;;28.53;24.34
55022;BME280;68328;35.990;-86.756;2023-03-03T00:30:01;98211.85;;;29.03;24.32
55022;BME280;68328;35.990;-86.756;2023-03-03T00:32:29;98205.12;;;28.85;24.28
55022;BME280;68328;35.990;-86.756;2023-03-03T00:34:53;98212.02;;;29.08;24.23
55022;BME280;68328;35.990;-86.756;2023-03-03T00:37:25;98223.54;;;29.03;24.27
55022;BME280;68328;35.990;-86.756;2023-03-03T00:39:42;98219.11;;;29.06;24.23
55022;BME280;68328;35.990;-86.756;2023-03-03T00:42:11;98221.80;;;29.09;24.18
55022;BME280;68328;35.990;-86.756;2023-03-03T00:44:39;98218.03;;;29.07;24.18
55022;BME280;68328;35.990;-86.756;2023-03-03T00:49:26;98212.76;;;28.23;25.62
55022;BME280;68328;35.990;-86.756;2023-03-03T00:51:48;98200.84;;;28.53;24.89
55022;BME280;68328;35.990;-86.756;2023-03-03T00:54:14;98171.71;;;28.54;23.01
55022;BME280;68328;35.990;-86.756;2023-03-03T00:56:40;98146.63;;;28.29;24.94
55022;BME280;68328;35.990;-86.756;2023-03-03T00:59:04;98119.64;;;28.50;24.70
55022;BME280;68328;35.990;-86.756;2023-03-03T01:01:30;98099.01;;;28.87;25.05
55022;BME280;68328;35.990;-86.756;2023-03-03T01:03:55;98099.66;;;28.96;25.36
55022;BME280;68328;35.990;-86.756;2023-03-03T01:06:20;98113.88;;;29.15;25.48
55022;BME280;68328;35.990;-86.756;2023-03-03T01:08:45;98127.57;;;28.84;25.80
55022;BME280;68328;35.990;-86.756;2023-03-03T01:11:14;98136.50;;;28.91;25.95
55022;BME280;68328;35.990;-86.756;2023-03-03T01:13:37;98136.39;;;29.11;26.00
55022;BME280;68328;35.990;-86.756;2023-03-03T01:16:02;98122.33;;;29.00;26.51
55022;BME280;68328;35.990;-86.756;2023-03-03T01:18:27;98112.46;;;29.15;26.83
55022;BME280;68328;35.990;-86.756;2023-03-03T01:20:52;98115.21;;;28.75;26.42
55022;BME280;68328;35.990;-86.756;2023-03-03T01:23:18;98116.14;;;29.04;26.61
55022;BME280;68328;35.990;-86.756;2023-03-03T01:25:43;98133.60;;;29.30;26.42
55022;BME280;68328;35.990;-86.756;2023-03-03T01:28:09;98159.10;;;28.72;26.45
55022;BME280;68328;35.990;-86.756;2023-03-03T01:30:34;98168.74;;;29.14;25.90
55022;BME280;68328;35.990;-86.756;2023-03-03T01:32:59;98174.52;;;28.87;26.50
55022;BME280;68328;35.990;-86.756;2023-03-03T01:35:25;98173.51;;;29.02;26.82
55022;BME280;68328;35.990;-86.756;2023-03-03T01:37:50;98158.69;;;29.33;27.77
55022;BME280;68328;35.990;-86.756;2023-03-03T01:40:18;98146.16;;;29.45;27.64
55022;BME280;68328;35.990;-86.756;2023-03-03T01:42:41;98133.02;;;28.94;27.28
55022;BME280;68328;35.990;-86.756;2023-03-03T01:45:13;98139.32;;;28.97;27.25
55022;BME280;68328;35.990;-86.756;2023-03-03T01:47:33;98140.90;;;29.55;26.64
55022;BME280;68328;35.990;-86.756;2023-03-03T01:50:02;98126.26;;;29.56;26.46
55022;BME280;68328;35.990;-86.756;2023-03-03T01:52:28;98115.54;;;29.56;26.23
55022;BME280;68328;35.990;-86.756;2023-03-03T01:54:54;98100.54;;;29.41;25.77
55022;BME280;68328;35.990;-86.756;2023-03-03T01:57:19;98099.39;;;28.89;25.83
55022;BME280;68328;35.990;-86.756;2023-03-03T01:59:44;98093.35;;;29.46;25.85
55022;BME280;68328;35.990;-86.756;2023-03-03T02:02:07;98087.93;;;29.06;24.76
55022;BME280;68328;35.990;-86.756;2023-03-03T02:04:32;98084.25;;;29.24;25.75
55022;BME280;68328;35.990;-86.756;2023-03-03T02:07:00;98094.70;;;29.60;25.75
55022;BME280;68328;35.990;-86.756;2023-03-03T02:09:28;98106.80;;;28.99;25.94
55022;BME280;68328;35.990;-86.756;2023-03-03T02:11:49;98126.39;;;29.29;25.61
55022;BME280;68328;35.990;-86.756;2023-03-03T02:14:13;98133.30;;;29.34;25.49
55022;BME280;68328;35.990;-86.756;2023-03-03T02:16:37;98127.35;;;29.30;25.42
55022;BME280;68328;35.990;-86.756;2023-03-03T02:19:04;98123.93;;;29.15;25.43
55022;BME280;68328;35.990;-86.756;2023-03-03T02:21:28;98128.66;;;29.35;25.20
55022;BME280;68328;35.990;-86.756;2023-03-03T02:23:59;98121.37;;;29.24;25.22
55022;BME280;68328;35.990;-86.756;2023-03-03T02:26:21;98116.15;;;29.34;25.15
55022;BME280;68328;35.990;-86.756;2023-03-03T02:28:44;98098.41;;;29.29;25.19
55022;BME280;68328;35.990;-86.756;2023-03-03T02:31:12;98086.58;;;29.18;25.26
55022;BME280;68328;35.990;-86.756;2023-03-03T02:33:35;98085.45;;;29.59;25.27
55022;BME280;68328;35.990;-86.756;2023-03-03T02:36:00;98078.54;;;29.20;25.34
55022;BME280;68328;35.990;-86.756;2023-03-03T02:38:28;98075.68;;;29.19;25.33
55022;BME280;68328;35.990;-86.756;2023-03-03T02:40:59;98074.54;;;28.83;25.41
55022;BME280;68328;35.990;-86.756;2023-03-03T02:43:20;98057.86;;;28.98;25.27
55022;BME280;68328;35.990;-86.756;2023-03-03T02:45:43;98042.58;;;29.31;25.39
55022;BME280;68328;35.990;-86.756;2023-03-03T02:48:08;98041.65;;;29.30;25.39
55022;BME280;68328;35.990;-86.756;2023-03-03T02:50:33;98048.18;;;29.41;25.27
55022;BME280;68328;35.990;-86.756;2023-03-03T02:52:59;98048.78;;;28.92;25.30
55022;BME280;68328;35.990;-86.756;2023-03-03T02:55:25;98047.22;;;28.92;25.30
55022;BME280;68328;35.990;-86.756;2023-03-03T02:57:50;98047.80;;;29.07;25.40
55022;BME280;68328;35.990;-86.756;2023-03-03T03:00:16;98063.35;;;29.17;25.33
55022;BME280;68328;35.990;-86.756;2023-03-03T03:02:41;98059.66;;;29.40;25.33
55022;BME280;68328;35.990;-86.756;2023-03-03T03:05:07;98056.96;;;29.11;25.35
55022;BME280;68328;35.990;-86.756;2023-03-03T03:07:33;98057.73;;;28.98;25.49
55022;BME280;68328;35.990;-86.756;2023-03-03T03:09:57;98051.06;;;29.32;25.41
55022;BME280;68328;35.990;-86.756;2023-03-03T03:12:23;98039.91;;;29.13;25.33
55022;BME280;68328;35.990;-86.756;2023-03-03T03:14:49;98044.85;;;29.09;25.19
55022;BME280;68328;35.990;-86.756;2023-03-03T03:17:13;98048.68;;;29.01;25.42
55022;BME280;68328;35.990;-86.756;2023-03-03T03:19:39;98049.47;;;28.94;25.45
55022;BME280;68328;35.990;-86.756;2023-03-03T03:22:04;98048.12;;;29.14;25.36
55022;BME280;68328;35.990;-86.756;2023-03-03T03:24:29;98047.34;;;28.53;25.60
55022;BME280;68328;35.990;-86.756;2023-03-03T03:26:54;98040.99;;;29.06;25.32
55022;BME280;68328;35.990;-86.756;2023-03-03T03:29:20;98036.19;;;29.22;25.41
55022;BME280;68328;35.990;-86.756;2023-03-03T03:31:45;98034.28;;;29.04;25.37
55022;BME280;68328;35.990;-86.756;2023-03-03T03:34:10;98022.19;;;29.32;25.29
55022;BME280;68328;35.990;-86.756;2023-03-03T03:36:36;98019.30;;;29.27;25.37
55022;BME280;68328;35.990;-86.756;2023-03-03T03:39:01;98026.72;;;29.28;25.35
55022;BME280;68328;35.990;-86.756;2023-03-03T03:41:27;98023.85;;;29.08;25.33
55022;BME280;68328;35.990;-86.756;2023-03-03T03:43:52;98024.39;;;29.27;25.37
55022;BME280;68328;35.990;-86.756;2023-03-03T03:46:17;98020.12;;;28.79;25.34
55022;BME280;68328;35.990;-86.756;2023-03-03T03:48:43;98029.13;;;28.93;25.44
55022;BME280;68328;35.990;-86.756;2023-03-03T03:51:10;98042.43;;;29.15;25.45
55022;BME280;68328;35.990;-86.756;2023-03-03T03:53:34;98036.55;;;28.73;25.40
55022;BME280;68328;35.990;-86.756;2023-03-03T03:56:00;98024.79;;;29.24;25.35
55022;BME280;68328;35.990;-86.756;2023-03-03T03:58:26;98002.44;;;29.19;25.37
55022;BME280;68328;35.990;-86.756;2023-03-03T04:00:51;97994.79;;;29.17;25.40
55022;BME280;68328;35.990;-86.756;2023-03-03T04:03:17;97988.61;;;28.95;25.35
55022;BME280;68328;35.990;-86.756;2023-03-03T04:05:42;97972.68;;;29.21;25.31
55022;BME280;68328;35.990;-86.756;2023-03-03T04:08:07;97966.17;;;29.19;25.31
55022;BME280;68328;35.990;-86.756;2023-03-03T04:10:33;97970.44;;;28.99;25.28
55022;BME280;68328;35.990;-86.756;2023-03-03T04:12:58;97989.74;;;29.18;25.32
55022;BME280;68328;35.990;-86.756;2023-03-03T04:15:23;97981.61;;;29.27;25.24
55022;BME280;68328;35.990;-86.756;2023-03-03T04:17:49;97972.55;;;29.00;25.24
55022;BME280;68328;35.990;-86.756;2023-03-03T04:20:15;97966.62;;;29.25;25.20
55022;BME280;68328;35.990;-86.756;2023-03-03T04:22:39;97962.26;;;28.92;25.27
55022;BME280;68328;35.990;-86.756;2023-03-03T04:25:06;97966.07;;;28.93;25.25
55022;BME280;68328;35.990;-86.756;2023-03-03T04:27:31;97964.59;;;28.68;25.26
55022;BME280;68328;35.990;-86.756;2023-03-03T04:29:56;97956.96;;;28.73;25.23
55022;BME280;68328;35.990;-86.756;2023-03-03T04:32:21;97944.30;;;28.80;25.16
55022;BME280;68328;35.990;-86.756;2023-03-03T04:34:46;97927.12;;;29.23;25.18
55022;BME280;68328;35.990;-86.756;2023-03-03T04:37:11;97906.78;;;29.17;25.21
55022;BME280;68328;35.990;-86.756;2023-03-03T04:39:37;97892.02;;;29.14;25.25
55022;BME280;68328;35.990;-86.756;2023-03-03T04:42:02;97878.85;;;29.13;25.24
55022;BME280;68328;35.990;-86.756;2023-03-03T04:44:27;97874.97;;;29.15;25.21
55022;BME280;68328;35.990;-86.756;2023-03-03T04:46:52;97884.75;;;29.13;25.23
55022;BME280;68328;35.990;-86.756;2023-03-03T04:49:18;97893.60;;;28.92;25.23
55022;BME280;68328;35.990;-86.756;2023-03-03T04:51:43;97895.71;;;28.86;25.26
55022;BME280;68328;35.990;-86.756;2023-03-03T04:54:09;97887.80;;;29.14;25.21
55022;BME280;68328;35.990;-86.756;2023-03-03T04:56:34;97886.58;;;29.07;25.27
55022;BME280;68328;35.990;-86.756;2023-03-03T04:58:59;97883.19;;;29.09;25.25
55022;BME280;68328;35.990;-86.756;2023-03-03T05:01:25;97873.26;;;29.08;25.25
55022;BME280;68328;35.990;-86.756;2023-03-03T05:03:50;97872.71;;;29.02;25.31
55022;BME280;68328;35.990;-86.756;2023-03-03T05:06:15;97849.93;;;29.05;25.29
55022;BME280;68328;35.990;-86.756;2023-03-03T05:08:41;97834.15;;;29.06;25.28
55022;BME280;68328;35.990;-86.756;2023-03-03T05:11:06;97848.76;;;29.00;25.31
55022;BME280;68328;35.990;-86.756;2023-03-03T05:13:31;97853.12;;;28.42;25.39
55022;BME280;68328;35.990;-86.756;2023-03-03T05:15:57;97873.26;;;29.02;25.27
55022;BME280;68328;35.990;-86.756;2023-03-03T05:18:23;97865.41;;;29.02;25.26
55022;BME280;68328;35.990;-86.756;2023-03-03T05:20:47;97871.08;;;28.97;25.33
55022;BME280;68328;35.990;-86.756;2023-03-03T05:23:12;97869.00;;;28.96;25.33
55022;BME280;68328;35.990;-86.756;2023-03-03T05:25:39;97871.14;;;28.55;25.26
55022;BME280;68328;35.990;-86.756;2023-03-03T05:28:03;97858.31;;;28.47;25.34
55022;BME280;68328;35.990;-86.756;2023-03-03T05:30:28;97850.67;;;28.72;25.34
55022;BME280;68328;35.990;-86.756;2023-03-03T05:32:54;97848.36;;;28.65;25.41
55022;BME280;68328;35.990;-86.756;2023-03-03T05:35:20;97856.77;;;28.62;25.42
55022;BME280;68328;35.990;-86.756;2023-03-03T05:37:44;97833.50;;;28.97;25.32
55022;BME280;68328;35.990;-86.756;2023-03-03T05:40:11;97813.35;;;28.90;25.37
55022;BME280;68328;35.990;-86.756;2023-03-03T05:42:35;97805.16;;;28.85;25.41
55022;BME280;68328;35.990;-86.756;2023-03-03T05:45:00;97789.75;;;28.76;25.48
55022;BME280;68328;35.990;-86.756;2023-03-03T05:47:26;97761.36;;;28.78;25.46
55022;BME280;68328;35.990;-86.756;2023-03-03T05:49:51;97760.42;;;28.88;25.37
55022;BME280;68328;35.990;-86.756;2023-03-03T05:52:16;97771.36;;;28.43;25.56
55022;BME280;68328;35.990;-86.756;2023-03-03T05:54:42;97771.81;;;28.66;25.56
55022;BME280;68328;35.990;-86.756;2023-03-03T05:57:07;97765.69;;;28.47;25.71
55022;BME280;68328;35.990;-86.756;2023-03-03T05:59:32;97758.60;;;28.31;25.85
55022;BME280;68328;35.990;-86.756;2023-03-03T06:01:57;97752.14;;;28.23;25.71
55022;BME280;68328;35.990;-86.756;2023-03-03T06:04:23;97730.51;;;28.27;25.89
55022;BME280;68328;35.990;-86.756;2023-03-03T06:06:48;97723.40;;;28.03;25.88
55022;BME280;68328;35.990;-86.756;2023-03-03T06:09:13;97716.79;;;28.20;25.95
55022;BME280;68328;35.990;-86.756;2023-03-03T06:11:39;97710.58;;;28.15;25.99
55022;BME280;68328;35.990;-86.756;2023-03-03T06:14:04;97712.57;;;28.08;26.06
55022;BME280;68328;35.990;-86.756;2023-03-03T06:16:29;97720.92;;;28.17;25.97
55022;BME280;68328;35.990;-86.756;2023-03-03T06:18:54;97735.76;;;28.10;26.04
55022;BME280;68328;35.990;-86.756;2023-03-03T06:21:20;97724.73;;;27.79;26.09
55022;BME280;68328;35.990;-86.756;2023-03-03T06:23:46;97721.95;;;27.83;26.06
55022;BME280;68328;35.990;-86.756;2023-03-03T06:26:10;97717.48;;;28.00;26.14
55022;BME280;68328;35.990;-86.756;2023-03-03T06:28:35;97702.89;;;27.75;26.14
55022;BME280;68328;35.990;-86.756;2023-03-03T06:31:01;97704.78;;;27.91;26.19
55022;BME280;68328;35.990;-86.756;2023-03-03T06:33:26;97708.84;;;27.89;26.20
55022;BME280;68328;35.990;-86.756;2023-03-03T06:35:53;97704.73;;;27.93;26.16
55022;BME280;68328;35.990;-86.756;2023-03-03T06:38:17;97723.24;;;27.94;26.14
55022;BME280;68328;35.990;-86.756;2023-03-03T06:40:42;97745.89;;;27.91;26.17
55022;BME280;68328;35.990;-86.756;2023-03-03T06:43:08;97735.18;;;27.89;26.20
55022;BME280;68328;35.990;-86.756;2023-03-03T06:45:33;97684.57;;;27.92;26.14
55022;BME280;68328;35.990;-86.756;2023-03-03T06:47:58;97717.55;;;27.85;26.21
55022;BME280;68328;35.990;-86.756;2023-03-03T06:50:23;97695.98;;;27.90;26.19
55022;BME280;68328;35.990;-86.756;2023-03-03T06:52:49;97722.64;;;27.87;26.21
55022;BME280;68328;35.990;-86.756;2023-03-03T06:55:20;97732.39;;;27.91;26.17
55022;BME280;68328;35.990;-86.756;2023-03-03T06:57:40;97715.52;;;27.85;26.21
55022;BME280;68328;35.990;-86.756;2023-03-03T07:00:13;97684.71;;;27.80;26.23
55022;BME280;68328;35.990;-86.756;2023-03-03T07:02:30;97667.17;;;27.85;26.18
55022;BME280;68328;35.990;-86.756;2023-03-03T07:04:56;97669.01;;;27.68;26.31
55022;BME280;68328;35.990;-86.756;2023-03-03T07:07:23;97669.63;;;27.78;26.23
55022;BME280;68328;35.990;-86.756;2023-03-03T07:09:48;97666.55;;;27.80;26.20
55022;BME280;68328;35.990;-86.756;2023-03-03T07:12:14;97639.98;;;27.86;26.13
55022;BME280;68328;35.990;-86.756;2023-03-03T07:14:42;97637.34;;;27.89;26.09
55022;BME280;68328;35.990;-86.756;2023-03-03T07:17:09;97630.71;;;28.17;26.05
55022;BME280;68328;35.990;-86.756;2023-03-03T07:19:32;97606.00;;;27.94;26.01
55022;BME280;68328;35.990;-86.756;2023-03-03T07:21:52;97584.59;;;27.94;25.99
55022;BME280;68328;35.990;-86.756;2023-03-03T07:24:24;97601.04;;;27.96;25.95
55022;BME280;68328;35.990;-86.756;2023-03-03T07:26:43;97608.49;;;27.97;25.94
55022;BME280;68328;35.990;-86.756;2023-03-03T07:29:20;97603.55;;;28.14;26.00
55022;BME280;68328;35.990;-86.756;2023-03-03T07:31:35;97603.86;;;27.72;26.16
55022;BME280;68328;35.990;-86.756;2023-03-03T07:34:00;97598.15;;;27.69;26.17
55022;BME280;68328;35.990;-86.756;2023-03-03T07:36:28;97564.33;;;27.88;25.98
55022;BME280;68328;35.990;-86.756;2023-03-03T07:38:52;97537.23;;;27.75;26.09
55022;BME280;68328;35.990;-86.756;2023-03-03T07:41:17;97568.43;;;27.79;25.85
55022;BME280;68328;35.990;-86.756;2023-03-03T07:43:46;97551.09;;;27.97;25.90
55022;BME280;68328;35.990;-86.756;2023-03-03T07:48:35;97568.67;;;27.85;26.00
55022;BME280;68328;35.990;-86.756;2023-03-03T07:51:02;97564.49;;;27.99;25.86
55022;BME280;68328;35.990;-86.756;2023-03-03T07:53:26;97563.94;;;28.05;25.82
55022;BME280;68328;35.990;-86.756;2023-03-03T07:55:46;97563.90;;;27.95;25.89
55022;BME280;68328;35.990;-86.756;2023-03-03T07:58:21;97556.87;;;27.86;26.00
55022;BME280;68328;35.990;-86.756;2023-03-03T08:03:04;97566.15;;;27.89;25.97
55022;BME280;68328;35.990;-86.756;2023-03-03T08:05:30;97561.28;;;27.97;25.89
55022;BME280;68328;35.990;-86.756;2023-03-03T08:07:55;97560.36;;;27.78;26.05
55022;BME280;68328;35.990;-86.756;2023-03-03T08:10:34;97566.26;;;27.93;25.88
55022;BME280;68328;35.990;-86.756;2023-03-03T08:12:44;97570.48;;;27.91;25.88
55022;BME280;68328;35.990;-86.756;2023-03-03T08:15:18;97559.36;;;28.17;25.65
55022;BME280;68328;35.990;-86.756;2023-03-03T08:17:35;97547.99;;;28.08;26.00
55022;BME280;68328;35.990;-86.756;2023-03-03T08:20:00;97532.64;;;28.29;25.80
55022;BME280;68328;35.990;-86.756;2023-03-03T08:22:33;97514.22;;;28.00;25.74
55022;BME280;68328;35.990;-86.756;2023-03-03T08:24:50;97524.93;;;28.00;25.74
55022;BME280;68328;35.990;-86.756;2023-03-03T08:27:15;97530.86;;;28.01;25.72
55022;BME280;68328;35.990;-86.756;2023-03-03T08:29:41;97537.32;;;28.03;25.71
55022;BME280;68328;35.990;-86.756;2023-03-03T08:32:06;97533.16;;;28.10;25.64
55022;BME280;68328;35.990;-86.756;2023-03-03T08:34:31;97533.56;;;27.96;25.76
55022;BME280;68328;35.990;-86.756;2023-03-03T08:36:57;97530.74;;;27.96;25.76
55022;BME280;68328;35.990;-86.756;2023-03-03T08:39:22;97528.94;;;28.05;25.66
55022;BME280;68328;35.990;-86.756;2023-03-03T08:41:47;97522.70;;;28.20;25.54
55022;BME280;68328;35.990;-86.756;2023-03-03T08:44:13;97506.73;;;28.15;25.61
55022;BME280;68328;35.990;-86.756;2023-03-03T08:46:38;97498.18;;;28.11;25.62
55022;BME280;68328;35.990;-86.756;2023-03-03T08:49:04;97482.53;;;27.94;25.76
55022;BME280;68328;35.990;-86.756;2023-03-03T08:51:28;97471.23;;;28.18;25.75
55022;BME280;68328;35.990;-86.756;2023-03-03T08:53:53;97460.79;;;28.12;25.80
55022;BME280;68328;35.990;-86.756;2023-03-03T08:56:19;97446.67;;;28.45;25.70
55022;BME280;68328;35.990;-86.756;2023-03-03T08:58:45;97419.64;;;27.88;25.79
55022;BME280;68328;35.990;-86.756;2023-03-03T09:01:09;97397.05;;;27.43;25.76
55022;BME280;68328;35.990;-86.756;2023-03-03T09:03:35;97382.79;;;27.78;25.86
55022;BME280;68328;35.990;-86.756;2023-03-03T09:06:00;97379.69;;;27.93;25.74
55022;BME280;68328;35.990;-86.756;2023-03-03T09:08:25;97350.53;;;27.84;25.83
55022;BME280;68328;35.990;-86.756;2023-03-03T09:10:51;97348.14;;;27.86;25.80
55022;BME280;68328;35.990;-86.756;2023-03-03T09:13:17;97355.44;;;28.16;25.74
55022;BME280;68328;35.990;-86.756;2023-03-03T09:15:41;97366.12;;;27.90;25.77
55022;BME280;68328;35.990;-86.756;2023-03-03T09:18:14;97377.25;;;28.21;25.72
55022;BME280;68328;35.990;-86.756;2023-03-03T09:20:34;97383.53;;;28.33;25.84
55022;BME280;68328;35.990;-86.756;2023-03-03T09:22:58;97375.90;;;27.91;25.82
55022;BME280;68328;35.990;-86.756;2023-03-03T09:25:30;97354.69;;;27.87;25.86
55022;BME280;68328;35.990;-86.756;2023-03-03T09:27:47;97360.68;;;27.89;25.83
55022;BME280;68328;35.990;-86.756;2023-03-03T09:32:38;97343.91;;;28.05;25.72
55022;BME280;68328;35.990;-86.756;2023-03-03T09:37:34;97312.24;;;28.08;25.68
55022;BME280;68328;35.990;-86.756;2023-03-03T09:39:55;97303.32;;;28.02;25.69
55022;BME280;68328;35.990;-86.756;2023-03-03T09:42:36;97287.10;;;28.04;25.63
55022;BME280;68328;35.990;-86.756;2023-03-03T09:45:07;97279.97;;;27.92;25.73
55022;BME280;68328;35.990;-86.756;2023-03-03T09:47:21;97276.59;;;27.87;25.76
55022;BME280;68328;35.990;-86.756;2023-03-03T09:49:40;97271.41;;;28.04;25.60
55022;BME280;68328;35.990;-86.756;2023-03-03T09:52:12;97265.85;;;28.22;25.62
55022;BME280;68328;35.990;-86.756;2023-03-03T09:54:38;97263.51;;;27.74;25.94
55022;BME280;68328;35.990;-86.756;2023-03-03T09:56:58;97271.02;;;28.03;25.66
55022;BME280;68328;35.990;-86.756;2023-03-03T09:59:27;97243.77;;;28.31;25.60
55022;BME280;68328;35.990;-86.756;2023-03-03T10:01:54;97233.44;;;28.01;25.64
55022;BME280;68328;35.990;-86.756;2023-03-03T10:04:20;97235.42;;;28.09;25.59
55022;BME280;68328;35.990;-86.756;2023-03-03T10:06:36;97209.08;;;28.18;25.51
55022;BME280;68328;35.990;-86.756;2023-03-03T10:09:14;97204.54;;;28.15;25.57
55022;BME280;68328;35.990;-86.756;2023-03-03T10:11:28;97199.70;;;28.11;25.61
55022;BME280;68328;35.990;-86.756;2023-03-03T10:14:02;97195.50;;;28.11;25.62
55022;BME280;68328;35.990;-86.756;2023-03-03T10:16:25;97192.28;;;28.16;25.58
55022;BME280;68328;35.990;-86.756;2023-03-03T10:18:43;97199.87;;;28.19;25.55
55022;BME280;68328;35.990;-86.756;2023-03-03T10:21:09;97155.30;;;28.18;25.61
55022;BME280;68328;35.990;-86.756;2023-03-03T10:23:41;97163.54;;;28.26;25.53
55022;BME280;68328;35.990;-86.756;2023-03-03T10:26:03;97163.09;;;28.13;25.63
55022;BME280;68328;35.990;-86.756;2023-03-03T10:28:32;97153.89;;;28.23;25.59
55022;BME280;68328;35.990;-86.756;2023-03-03T10:30:49;97153.78;;;28.21;25.59
55022;BME280;68328;35.990;-86.756;2023-03-03T10:33:16;97156.69;;;28.23;25.58
55022;BME280;68328;35.990;-86.756;2023-03-03T10:35:45;97140.65;;;28.22;25.52
55022;BME280;68328;35.990;-86.756;2023-03-03T10:38:12;97140.73;;;28.32;25.49
55022;BME280;68328;35.990;-86.756;2023-03-03T10:40:32;97122.25;;;28.26;25.52
55022;BME280;68328;35.990;-86.756;2023-03-03T10:43:04;97119.22;;;28.15;25.61
55022;BME280;68328;35.990;-86.756;2023-03-03T10:47:53;97119.08;;;28.52;25.52
55022;BME280;68328;35.990;-86.756;2023-03-03T10:50:16;97126.45;;;28.31;25.51
55022;BME280;68328;35.990;-86.756;2023-03-03T10:52:38;97123.11;;;28.46;25.58
55022;BME280;68328;35.990;-86.756;2023-03-03T10:57:28;97125.80;;;28.22;25.59
55022;BME280;68328;35.990;-86.756;2023-03-03T10:59:59;97130.76;;;28.28;25.56
55022;BME280;68328;35.990;-86.756;2023-03-03T11:02:19;97107.55;;;28.30;25.57
55022;BME280;68328;35.990;-86.756;2023-03-03T11:04:48;97108.77;;;28.21;25.64
55022;BME280;68328;35.990;-86.756;2023-03-03T11:07:10;97111.97;;;28.26;25.62
55022;BME280;68328;35.990;-86.756;2023-03-03T11:09:37;97116.48;;;28.73;25.63
55022;BME280;68328;35.990;-86.756;2023-03-03T11:12:00;97119.15;;;28.25;25.63
55022;BME280;68328;35.990;-86.756;2023-03-03T11:14:26;97134.02;;;28.35;25.55
55022;BME280;68328;35.990;-86.756;2023-03-03T11:16:55;97128.57;;;28.34;25.59
55022;BME280;68328;35.990;-86.756;2023-03-03T11:19:23;97121.72;;;28.40;25.52
55022;BME280;68328;35.990;-86.756;2023-03-03T11:21:42;97111.85;;;28.15;25.81
55022;BME280;68328;35.990;-86.756;2023-03-03T11:24:18;97126.08;;;28.42;25.76
55022;BME280;68328;35.990;-86.756;2023-03-03T11:26:39;97128.71;;;28.26;25.66
55022;BME280;68328;35.990;-86.756;2023-03-03T11:29:03;97136.78;;;28.42;25.51
55022;BME280;68328;35.990;-86.756;2023-03-03T11:31:21;97141.08;;;28.38;25.53
55022;BME280;68328;35.990;-86.756;2023-03-03T11:33:46;97133.42;;;28.34;25.61
55022;BME280;68328;35.990;-86.756;2023-03-03T11:36:12;97129.84;;;28.36;25.59
55022;BME280;68328;35.990;-86.756;2023-03-03T11:38:43;97119.18;;;28.48;25.51
55022;BME280;68328;35.990;-86.756;2023-03-03T11:41:02;97114.73;;;28.42;25.61
55022;BME280;68328;35.990;-86.756;2023-03-03T11:43:29;97106.94;;;28.28;25.53
55022;BME280;68328;35.990;-86.756;2023-03-03T11:45:52;97104.05;;;28.54;25.54
55022;BME280;68328;35.990;-86.756;2023-03-03T11:48:18;97093.35;;;28.48;25.65
55022;BME280;68328;35.990;-86.756;2023-03-03T11:50:44;97095.97;;;28.55;25.64
55022;BME280;68328;35.990;-86.756;2023-03-03T11:53:19;97093.66;;;28.51;25.73
55022;BME280;68328;35.990;-86.756;2023-03-03T11:55:34;97095.71;;;28.52;25.69
55022;BME280;68328;35.990;-86.756;2023-03-03T11:58:03;97086.27;;;28.76;25.66
55022;BME280;68328;35.990;-86.756;2023-03-03T12:00:27;97086.93;;;28.76;25.65
55022;BME280;68328;35.990;-86.756;2023-03-03T12:03:02;97070.45;;;28.46;25.69
55022;BME280;68328;35.990;-86.756;2023-03-03T12:05:22;97044.94;;;28.52;25.63
55022;BME280;68328;35.990;-86.756;2023-03-03T12:07:43;97012.67;;;28.52;25.61
55022;BME280;68328;35.990;-86.756;2023-03-03T12:10:13;96998.12;;;28.37;25.72
55022;BME280;68328;35.990;-86.756;2023-03-03T12:12:32;96976.35;;;28.22;25.84
55022;BME280;68328;35.990;-86.756;2023-03-03T12:15:04;96966.56;;;28.52;25.64
55022;BME280;68328;35.990;-86.756;2023-03-03T12:17:31;96984.66;;;28.34;25.89
55022;BME280;68328;35.990;-86.756;2023-03-03T12:19:50;96985.30;;;28.51;25.77
55022;BME280;68328;35.990;-86.756;2023-03-03T12:22:22;97021.19;;;28.59;25.65
55022;BME280;68328;35.990;-86.756;2023-03-03T12:24:45;97036.45;;;28.04;25.88
55022;BME280;68328;35.990;-86.756;2023-03-03T12:27:12;97033.29;;;28.55;25.66
55022;BME280;68328;35.990;-86.756;2023-03-03T12:29:29;97036.98;;;28.50;25.71
55022;BME280;68328;35.990;-86.756;2023-03-03T12:31:54;97022.61;;;28.58;25.67
55022;BME280;68328;35.990;-86.756;2023-03-03T12:34:21;97027.91;;;28.56;25.73
55022;BME280;68328;35.990;-86.756;2023-03-03T12:39:13;97017.43;;;28.60;25.72
55022;BME280;68328;35.990;-86.756;2023-03-03T12:41:36;97003.20;;;28.61;25.74
55022;BME280;68328;35.990;-86.756;2023-03-03T12:44:03;97001.25;;;28.82;25.81
55022;BME280;68328;35.990;-86.756;2023-03-03T12:46:27;97005.41;;;28.59;25.84
55022;BME280;68328;35.990;-86.756;2023-03-03T12:48:48;97009.58;;;28.59;25.79
55022;BME280;68328;35.990;-86.756;2023-03-03T12:51:24;96998.91;;;28.61;25.77